Terminal Aerodrome Forecast
Issued by NWS

Home | Current Version | Previous Version | Graphics & Text | Print | Product List | Glossary On
Versions: 1 2 3 4 5 6 7 8 9 10 11 12 13 14 15 16 17 18 19 20 21 22 23 24 25 26 27 28 29 30 31 32 33 34 35 36
000
FTUS43 KLOT 191943 AAA
TAFORD
TAF AMD
KORD 191943Z 1920/2024 08011KT P6SM VCSH BKN040 OVC050
     FM192100 03010KT P6SM -SHRA BKN040 OVC050
     FM192300 03010KT 4SM -SHRA BR OVC010
     FM200300 35006KT 4SM -SHRA OVC008
     FM200600 29008KT 6SM BR VCSH BKN008 OVC015
     FM201200 28010KT 6SM -SHRA BR BKN008 OVC015
     FM201500 28012G20KT P6SM VCSH SCT010 BKN020
     FM201900 29020G30KT P6SM BKN030=

USA.gov is the U.S. government's official web portal to all federal, state and local government web resources and services.